Pays
Station

 

Conditions  météo  pour  Plymouth/Roborough  -  Royaume-Uni    Royaume-Uni

  
6 °C
    
 
 

METAR pour Plymouth/Roborough :

EGHD 231520Z 32012G22KT 280V350 9999 FEW018 06/05 Q1018

 

Voici le bulletin pour Plymouth/Roborough - Royaume-Uni.
 
Le bulletin a été fait il y a 585 heures et 25 minutes, à 15:20 UTC .
Le vent soufflait à la vitesse de 6.2 mètres par seconde avec des rafales jusqu'à 11.3 mètres par seconde de Nord-ouest (320°), variant entre Ouest (280°) et Nord (350°).
 
La température était de 6 °C, avec un point de rosée à 5 °C.
La pression atmosphérique était de 1018 hPa.
L'humidité relative était de 93.3%.
 
Il y avait 1 à 2/8ème de nébulosité à une hauteur de 549 mètres.
 
La visibilité globale était de supérieure à 10 kilomètres.
 

 
 
 

Pays :   A   B   C   D   E   F   G   H   I   J   K   L   M   N   O   P   Q   R   S   T   U   V   W   Y   Z

 

Partenaires :  Info Météo avec Met'info
Météo Marine avec MeteoMarine.net
Infos Site  |  Infos Légales  |  Crédits  |  Confidentialité
Contactez-nous  |  Ajouter aux favoris
© 2013-2018 METAR - Tous droits réservés